Time;durP1;ratioP1;P1;durP2;ratioP2;P2;SDS_P1;SDS_P2;PMS_P1;PMS_P2;Temp;Humidity;BMP_temperature;BMP_pressure;BME280_temperature;BME280_humidity;BME280_pressure;Samples;Min_cycle;Max_cycle;Signal;HPM_P1;HPM_P2
2022/11/12 00:01:02;;;;;;;147.45;86.97;;;281.90;2278.40;;;;;;5099177;28;20024;-84
2022/11/12 00:03:28;;;;;;;128.10;77.93;;;281.90;2278.40;;;;;;5098487;28;20032;-84
2022/11/12 00:05:54;;;;;;;115.07;72.07;;;282.00;2278.40;;;;;;5097743;28;20055;-86
2022/11/12 00:08:20;;;;;;;126.82;72.97;;;281.80;2278.40;;;;;;5098275;28;20031;-84
2022/11/12 00:10:46;;;;;;;119.82;72.93;;;281.90;2278.40;;;;;;5098303;28;20020;-85
2022/11/12 00:13:12;;;;;;;141.57;86.15;;;282.00;2278.40;;;;;;5093089;28;20486;-85
2022/11/12 00:15:38;;;;;;;130.05;78.38;;;282.00;2278.40;;;;;;5093146;28;20028;-87
2022/11/12 00:18:04;;;;;;;111.75;71.07;;;282.00;2278.40;;;;;;5093293;28;20439;-83
2022/11/12 00:20:30;;;;;;;111.75;67.75;;;281.80;2278.40;;;;;;5092922;28;20085;-85
2022/11/12 00:22:56;;;;;;;150.98;94.38;;;281.60;2278.40;;;;;;5095342;28;20021;-86
2022/11/12 00:25:22;;;;;;;153.25;97.82;;;256.90;2252.80;;;;;;5114724;28;20028;-85
2022/11/12 00:27:47;;;;;;;160.95;99.03;;;281.60;2278.40;;;;;;5117163;28;20547;-85
2022/11/12 00:30:13;;;;;;;117.25;78.97;;;256.90;2252.80;;;;;;5117143;28;20024;-87
2022/11/12 00:32:39;;;;;;;103.57;70.30;;;256.70;2252.80;;;;;;5124491;28;20030;-86
2022/11/12 00:35:06;;;;;;;98.45;63.25;;;256.70;2252.80;;;;;;5141415;28;20020;-85
2022/11/12 00:37:32;;;;;;;90.85;58.80;;;256.80;2252.80;;;;;;5138325;28;20012;-85
2022/11/12 00:39:57;;;;;;;83.47;57.53;;;256.80;2252.80;;;;;;5117428;28;20049;-85
2022/11/12 00:42:23;;;;;;;99.63;64.40;;;256.90;2252.80;;;;;;5117544;28;20091;-86
2022/11/12 00:44:49;;;;;;;106.75;65.75;;;256.70;2252.80;;;;;;5117483;28;20547;-85
2022/11/12 00:47:15;;;;;;;98.95;65.85;;;256.90;2252.80;;;;;;5117158;28;20114;-86
2022/11/12 00:49:41;;;;;;;120.88;74.15;;;256.90;2252.80;;;;;;5117309;28;20027;-85
2022/11/12 00:52:07;;;;;;;130.10;84.43;;;256.90;2252.80;;;;;;5119761;28;20481;-86
2022/11/12 00:54:33;;;;;;;117.95;77.35;;;281.70;2278.40;;;;;;5133076;28;20028;-86
2022/11/12 00:56:59;;;;;;;106.57;70.45;;;281.70;2278.40;;;;;;5127422;28;20054;-85
2022/11/12 00:59:25;;;;;;;100.63;67.60;;;281.60;2278.40;;;;;;5116366;28;20028;-84
2022/11/12 01:01:51;;;;;;;97.07;62.10;;;281.70;2278.40;;;;;;5116454;28;20027;-86
2022/11/12 01:04:16;;;;;;;94.63;63.55;;;281.80;2278.40;;;;;;5115978;28;20096;-85
2022/11/12 01:06:42;;;;;;;90.00;62.80;;;281.70;2278.40;;;;;;5117328;28;20460;-85
2022/11/12 01:09:08;;;;;;;93.90;60.70;;;281.60;2278.40;;;;;;5116357;28;20027;-85
2022/11/12 01:11:35;;;;;;;97.50;64.00;;;281.60;2278.40;;;;;;5117446;28;20023;-86
2022/11/12 01:14:06;;;;;;;88.90;60.47;;;256.90;2252.80;;;;;;5104816;28;20035;-86
2022/11/12 01:16:36;;;;;;;81.80;52.05;;;281.70;2278.40;;;;;;5092528;28;20029;-86
2022/11/12 01:19:03;;;;;;;74.13;51.90;;;256.90;2252.80;;;;;;5092363;28;20447;-85
2022/11/12 01:21:31;;;;;;;80.78;53.17;;;256.50;2252.80;;;;;;5092422;28;20029;-86
2022/11/12 01:23:58;;;;;;;77.53;51.88;;;256.80;2252.80;;;;;;5092183;28;20020;-86
2022/11/12 01:26:27;;;;;;;89.78;55.03;;;256.70;2252.80;;;;;;5092035;28;20037;-86
2022/11/12 01:28:53;;;;;;;82.50;55.35;;;256.90;2252.80;;;;;;5092419;28;20115;-86
2022/11/12 01:31:24;;;;;;;83.45;55.63;;;256.90;2252.80;;;;;;5092196;28;20059;-86
2022/11/12 01:33:56;;;;;;;86.82;56.97;;;281.60;2278.40;;;;;;5092013;28;20124;-86
2022/11/12 01:36:22;;;;;;;84.90;55.22;;;281.60;2278.40;;;;;;5091715;28;20060;-88
2022/11/12 01:38:49;;;;;;;87.85;54.90;;;281.70;2278.40;;;;;;5075852;28;20031;-86
2022/11/12 01:41:21;;;;;;;82.68;56.92;;;281.80;2278.40;;;;;;5074847;28;20029;-86
2022/11/12 01:43:47;;;;;;;82.93;56.65;;;281.70;2278.40;;;;;;5091961;28;20047;-86
2022/11/12 01:46:26;;;;;;;82.13;56.17;;;281.80;2278.40;;;;;;5077244;28;20108;-86
2022/11/12 01:48:57;;;;;;;84.13;58.00;;;281.80;2278.40;;;;;;5075643;28;20025;-88
2022/11/12 01:51:31;;;;;;;86.05;57.00;;;281.80;2278.40;;;;;;5074585;28;20111;-85
2022/11/12 01:54:02;;;;;;;86.40;57.50;;;281.80;2278.40;;;;;;5074901;28;20024;-85
2022/11/12 01:56:30;;;;;;;83.32;55.15;;;281.90;2278.40;;;;;;5074712;28;20024;-85
2022/11/12 01:59:03;;;;;;;85.68;55.78;;;281.90;2278.40;;;;;;5074572;28;20028;-86
2022/11/12 02:01:29;;;;;;;80.65;51.60;;;281.90;2278.40;;;;;;5074879;28;20471;-86
2022/11/12 02:03:55;;;;;;;80.78;52.88;;;282.00;2278.40;;;;;;5071257;28;20078;-85
2022/11/12 02:06:22;;;;;;;78.30;50.55;;;281.90;2278.40;;;;;;5037787;28;20466;-84
2022/11/12 02:08:49;;;;;;;73.20;50.20;;;282.00;2278.40;;;;;;5037953;28;20024;-86
2022/11/12 02:11:18;;;;;;;72.05;48.08;;;282.00;2278.40;;;;;;5038247;28;20029;-85
2022/11/12 02:13:57;;;;;;;87.38;56.90;;;282.00;2278.40;;;;;;5038089;28;20491;-85
2022/11/12 02:16:44;;;;;;;89.07;57.30;;;282.00;2278.40;;;;;;5037943;28;20040;-87
2022/11/12 02:19:13;;;;;;;87.68;55.95;;;281.70;2278.40;;;;;;5037763;28;20020;-85
2022/11/12 02:21:40;;;;;;;83.68;55.45;;;281.80;2278.40;;;;;;5037448;28;20163;-84
2022/11/12 02:24:11;;;;;;;80.70;54.80;;;281.90;2278.40;;;;;;5055280;28;20024;-85
2022/11/12 02:26:41;;;;;;;82.38;51.53;;;281.90;2278.40;;;;;;5037715;28;20029;-87
2022/11/12 02:29:08;;;;;;;79.57;50.20;;;282.00;2278.40;;;;;;5037968;28;20025;-85
2022/11/12 02:31:34;;;;;;;80.60;48.78;;;282.00;2278.40;;;;;;5037601;28;20032;-85
2022/11/12 02:34:00;;;;;;;77.60;47.30;;;282.00;2278.40;;;;;;5038058;28;20119;-86
2022/11/12 02:36:26;;;;;;;74.43;45.38;;;282.10;2278.40;;;;;;5046743;28;20036;-86
2022/11/12 02:38:52;;;;;;;74.28;47.20;;;282.00;2278.40;;;;;;5057547;28;20029;-87
2022/11/12 02:41:18;;;;;;;75.28;46.08;;;282.00;2278.40;;;;;;5057233;28;20524;-86
2022/11/12 02:43:44;;;;;;;76.70;46.67;;;282.00;2278.40;;;;;;5057113;28;20063;-86
2022/11/12 02:46:10;;;;;;;88.47;52.65;;;282.10;2278.40;;;;;;5057071;28;20078;-85
2022/11/12 02:48:36;;;;;;;95.75;61.65;;;282.00;2278.40;;;;;;5056495;28;20035;-85
2022/11/12 02:51:02;;;;;;;98.28;66.25;;;281.90;2278.40;;;;;;5057164;28;20107;-86
2022/11/12 02:53:28;;;;;;;92.57;60.72;;;281.70;2278.40;;;;;;5057069;28;20032;-86
2022/11/12 02:55:54;;;;;;;89.85;60.88;;;281.70;2278.40;;;;;;5057027;28;20081;-86
2022/11/12 02:58:21;;;;;;;92.05;59.03;;;281.70;2278.40;;;;;;5056975;28;20077;-85
2022/11/12 03:00:47;;;;;;;90.20;58.97;;;281.80;2278.40;;;;;;5057144;28;20031;-86
2022/11/12 03:03:13;;;;;;;86.85;59.28;;;281.80;2278.40;;;;;;5056965;28;20116;-86
2022/11/12 03:05:39;;;;;;;81.55;56.70;;;281.90;2278.40;;;;;;5088384;28;20138;-84
2022/11/12 03:08:07;;;;;;;83.95;55.83;;;281.90;2278.40;;;;;;5093996;28;20403;-86
2022/11/12 03:10:37;;;;;;;85.55;56.47;;;282.00;2278.40;;;;;;5093341;28;20031;-85
2022/11/12 03:13:03;;;;;;;80.82;51.58;;;281.80;2278.40;;;;;;5093765;28;20016;-86
2022/11/12 03:15:29;;;;;;;77.45;52.45;;;256.90;2252.80;;;;;;5093342;28;20028;-85
2022/11/12 03:17:58;;;;;;;71.80;50.22;;;256.80;2252.80;;;;;;5093953;28;20032;-86
2022/11/12 03:20:25;;;;;;;82.57;51.20;;;256.70;2252.80;;;;;;5093600;28;20048;-86
2022/11/12 03:23:10;;;;;;;79.60;53.63;;;282.10;2278.40;;;;;;5093627;28;20059;-85
2022/11/12 03:25:36;;;;;;;90.00;57.95;;;281.70;2278.40;;;;;;5093340;28;20035;-85
2022/11/12 03:28:06;;;;;;;81.90;54.72;;;281.60;2278.40;;;;;;5093413;28;20028;-85
2022/11/12 03:30:35;;;;;;;98.18;67.07;;;281.70;2278.40;;;;;;5093424;28;20028;-86
2022/11/12 03:33:01;;;;;;;111.78;73.07;;;281.70;2278.40;;;;;;5093522;28;20028;-85
2022/11/12 03:35:27;;;;;;;106.03;70.57;;;281.70;2278.40;;;;;;5093566;28;20349;-85
2022/11/12 03:37:53;;;;;;;97.90;65.30;;;281.80;2278.40;;;;;;5093421;28;20376;-84
2022/11/12 03:40:19;;;;;;;90.68;60.05;;;281.90;2278.40;;;;;;5093230;28;20032;-84
2022/11/12 03:42:49;;;;;;;86.13;55.00;;;281.80;2278.40;;;;;;5093529;28;20360;-83
2022/11/12 03:45:16;;;;;;;80.88;53.63;;;281.90;2278.40;;;;;;5093561;28;20034;-84
2022/11/12 03:47:43;;;;;;;96.20;66.35;;;281.80;2278.40;;;;;;5093150;28;20534;-85
2022/11/12 03:50:10;;;;;;;87.57;60.47;;;281.70;2278.40;;;;;;5093297;28;20123;-84
2022/11/12 03:52:37;;;;;;;87.47;58.22;;;281.80;2278.40;;;;;;5093185;28;20035;-83
2022/11/12 03:55:04;;;;;;;86.57;59.83;;;281.70;2073.60;;;;;;5093470;28;20421;-84
2022/11/12 03:57:30;;;;;;;85.30;58.97;;;281.70;2278.40;;;;;;5093310;28;20473;-85
2022/11/12 03:59:56;;;;;;;80.45;54.03;;;281.80;2278.40;;;;;;5096603;28;20107;-83
2022/11/12 04:02:21;;;;;;;78.03;49.85;;;281.80;2278.40;;;;;;5113227;28;20016;-82
2022/11/12 04:10:16;;;;;;;73.88;50.30;;;256.90;2252.80;;;;;;5077835;28;20181;-86
2022/11/12 04:15:26;;;;;;;83.78;50.17;;;256.60;2252.80;;;;;;5077639;28;20070;-86
2022/11/12 04:23:20;;;;;;;74.75;47.33;;;256.90;2252.80;;;;;;5077583;28;20116;-85
2022/11/12 04:28:29;;;;;;;71.38;45.45;;;256.90;2252.80;;;;;;5077423;28;20059;-83
2022/11/12 04:30:55;;;;;;;62.58;42.85;;;256.70;2252.80;;;;;;5059342;28;20535;-85
2022/11/12 04:33:21;;;;;;;65.40;43.58;;;256.80;2252.80;;;;;;5059367;28;20074;-84
2022/11/12 04:35:47;;;;;;;65.47;42.83;;;256.60;2252.80;;;;;;5055825;28;20040;-83
2022/11/12 04:38:12;;;;;;;75.00;49.90;;;256.70;2252.80;;;;;;5039128;28;20025;-84
2022/11/12 04:46:06;;;;;;;69.57;47.88;;;256.90;2252.80;;;;;;5069619;28;20439;-84
2022/11/12 04:48:32;;;;;;;67.97;48.10;;;256.90;2252.80;;;;;;5058583;28;20028;-83
2022/11/12 04:52:03;;;;;;;68.68;48.65;;;256.80;2252.80;;;;;;5076594;28;20028;-86
2022/11/12 04:53:49;;;;;;;68.07;45.60;;;256.90;2252.80;;;;;;5056718;28;20029;-87
2022/11/12 04:56:15;;;;;;;91.45;58.45;;;281.60;2278.40;;;;;;5039285;28;20029;-87
2022/11/12 04:58:41;;;;;;;86.70;57.78;;;256.90;2252.80;;;;;;5039267;28;20488;-85
2022/11/12 05:01:07;;;;;;;85.20;56.05;;;281.60;2278.40;;;;;;5039390;28;20029;-87
2022/11/12 05:03:32;;;;;;;75.38;49.72;;;256.80;2252.80;;;;;;5038740;28;20510;-85
2022/11/12 05:06:50;;;;;;;74.22;47.92;;;256.70;2252.80;;;;;;5038688;28;20032;-87
2022/11/12 05:08:51;;;;;;;;;;;256.70;2252.80;;;;;;5056538;28;20102;-85
2022/11/12 05:11:17;;;;;;;70.90;45.92;;;256.80;2252.80;;;;;;5038271;28;20384;-85
2022/11/12 05:13:42;;;;;;;80.22;53.13;;;256.90;2252.80;;;;;;5038834;28;20025;-86
2022/11/12 05:16:08;;;;;;;82.47;55.72;;;256.80;2252.80;;;;;;5039111;28;20106;-86
2022/11/12 05:18:34;;;;;;;83.53;53.97;;;256.90;2201.60;;;;;;5038791;28;20489;-86
2022/11/12 05:22:04;;;;;;;90.10;53.20;;;256.70;2252.80;;;;;;5038787;28;20449;-85
2022/11/12 05:23:45;;;;;;;105.63;67.75;;;256.80;2252.80;;;;;;5055692;28;20025;-84
2022/11/12 05:26:11;;;;;;;82.40;52.67;;;256.90;2252.80;;;;;;5038613;28;20091;-84
2022/11/12 05:28:37;;;;;;;83.32;55.60;;;256.90;2252.80;;;;;;5042669;28;20024;-85
2022/11/12 05:31:03;;;;;;;101.57;65.65;;;256.90;2252.80;;;;;;5044202;28;20025;-84
2022/11/12 05:33:28;;;;;;;93.68;58.35;;;256.90;2252.80;;;;;;5045657;28;20056;-84
2022/11/12 05:35:57;;;;;;;106.28;69.95;;;281.60;2278.40;;;;;;5043601;28;20033;-84
2022/11/12 05:38:23;;;;;;;104.40;65.47;;;281.60;2278.40;;;;;;5038228;28;20036;-86
2022/11/12 05:40:49;;;;;;;105.30;64.22;;;256.80;2252.80;;;;;;5038383;28;20025;-85
2022/11/12 05:43:15;;;;;;;98.65;62.42;;;256.80;2252.80;;;;;;5038295;28;20021;-86
2022/11/12 05:45:44;;;;;;;96.57;60.33;;;256.80;2252.80;;;;;;5046939;28;20106;-85
2022/11/12 05:48:09;;;;;;;97.30;63.13;;;256.90;2252.80;;;;;;5038078;28;20098;-86
2022/11/12 05:50:35;;;;;;;110.72;69.50;;;281.60;2278.40;;;;;;5037859;28;20025;-85
2022/11/12 05:53:01;;;;;;;113.05;70.97;;;281.70;2278.40;;;;;;5038116;28;20146;-84
2022/11/12 05:55:27;;;;;;;109.30;66.88;;;281.70;2278.40;;;;;;5038354;28;20035;-85
2022/11/12 05:57:52;;;;;;;89.78;56.28;;;281.70;2278.40;;;;;;5038728;28;20021;-85
2022/11/12 06:00:18;;;;;;;86.80;54.20;;;256.90;2252.80;;;;;;5038586;28;20532;-85
2022/11/12 06:02:44;;;;;;;76.38;49.70;;;281.60;2278.40;;;;;;5038731;28;20028;-86
2022/11/12 06:05:10;;;;;;;67.97;45.33;;;281.70;2278.40;;;;;;5060972;28;20053;-84
2022/11/12 06:07:36;;;;;;;63.70;43.75;;;281.80;2278.40;;;;;;5074756;28;20479;-83
2022/11/12 06:10:01;;;;;;;92.93;62.08;;;281.90;2278.40;;;;;;5074458;28;20530;-85
2022/11/12 06:12:27;;;;;;;111.32;70.80;;;281.90;2278.40;;;;;;5074293;28;20735;-85
2022/11/12 06:14:53;;;;;;;102.97;66.78;;;281.80;2278.40;;;;;;5079918;28;20039;-86
2022/11/12 06:17:19;;;;;;;112.13;77.57;;;281.80;2278.40;;;;;;5094331;28;20043;-84
2022/11/12 06:19:44;;;;;;;98.72;64.80;;;281.70;2278.40;;;;;;5094000;28;20028;-84
2022/11/12 06:22:10;;;;;;;116.85;66.22;;;281.70;2278.40;;;;;;5093686;28;20024;-85
2022/11/12 06:24:36;;;;;;;124.22;70.78;;;281.80;2278.40;;;;;;5094049;28;20024;-85
2022/11/12 06:27:02;;;;;;;134.23;77.82;;;281.80;2278.40;;;;;;5094103;28;20029;-84
2022/11/12 06:29:28;;;;;;;104.80;69.20;;;281.90;2278.40;;;;;;5093898;28;20073;-85
2022/11/12 06:31:54;;;;;;;101.55;62.88;;;281.70;2278.40;;;;;;5094300;28;20077;-85
2022/11/12 06:34:20;;;;;;;106.15;66.15;;;281.70;2278.40;;;;;;5094018;28;20383;-83
2022/11/12 06:36:47;;;;;;;98.85;61.42;;;281.80;2278.40;;;;;;5094134;28;20528;-84
2022/11/12 06:39:13;;;;;;;95.95;59.90;;;281.90;2278.40;;;;;;5094211;28;20479;-84
2022/11/12 06:41:39;;;;;;;118.93;78.53;;;282.00;2278.40;;;;;;5094162;28;20024;-84
2022/11/12 06:44:05;;;;;;;149.20;103.53;;;282.10;2278.40;;;;;;5094906;28;20106;-85
2022/11/12 06:46:31;;;;;;;158.23;105.53;;;282.40;2278.40;;;;;;5093454;28;20039;-86
2022/11/12 06:48:56;;;;;;;129.60;89.65;;;282.20;2278.40;;;;;;5093395;28;20034;-84
2022/11/12 06:51:22;;;;;;;100.53;64.35;;;282.10;2278.40;;;;;;5092900;28;20028;-84
2022/11/12 06:53:48;;;;;;;105.13;67.05;;;281.90;2278.40;;;;;;5093689;28;20052;-84
2022/11/12 06:56:14;;;;;;;95.88;63.42;;;281.90;2278.40;;;;;;5094751;28;20024;-84
2022/11/12 06:58:41;;;;;;;105.10;66.85;;;281.90;2278.40;;;;;;5093906;28;20052;-83
2022/11/12 07:01:13;;;;;;;88.53;58.40;;;282.00;2278.40;;;;;;5093625;28;20494;-82
2022/11/12 07:03:40;;;;;;;85.25;58.70;;;281.80;2278.40;;;;;;5092910;28;20035;-85
2022/11/12 07:06:09;;;;;;;92.72;58.33;;;281.60;2278.40;;;;;;5056689;28;20035;-84
2022/11/12 07:08:35;;;;;;;93.70;62.42;;;281.70;2278.40;;;;;;5056626;28;20476;-85
2022/11/12 07:11:00;;;;;;;95.43;63.17;;;281.90;2278.40;;;;;;5066593;28;20020;-84
2022/11/12 07:13:29;;;;;;;82.90;56.33;;;282.00;2278.40;;;;;;5081398;28;20024;-84
2022/11/12 07:16:00;;;;;;;71.07;48.38;;;282.00;2278.40;;;;;;5081067;28;20063;-84
2022/11/12 07:18:26;;;;;;;61.83;45.25;;;282.00;2278.40;;;;;;5067707;28;20119;-84
2022/11/12 07:21:14;;;;;;;65.03;44.17;;;282.10;2278.40;;;;;;5056572;28;20146;-84
2022/11/12 07:23:40;;;;;;;67.35;46.88;;;282.20;2278.40;;;;;;5057259;28;20052;-84
2022/11/12 07:26:11;;;;;;;80.63;53.13;;;282.50;2278.40;;;;;;5056459;28;20482;-83
2022/11/12 07:28:37;;;;;;;102.10;68.40;;;282.30;2278.40;;;;;;5074517;28;20050;-84
2022/11/12 07:31:06;;;;;;;98.85;67.75;;;282.30;2278.40;;;;;;5056219;28;20394;-84
2022/11/12 07:33:32;;;;;;;106.25;70.55;;;282.30;2278.40;;;;;;5074573;28;20435;-85
2022/11/12 07:36:03;;;;;;;106.90;72.40;;;282.30;2278.40;;;;;;5056989;28;20384;-85
2022/11/12 07:38:31;;;;;;;113.13;77.32;;;282.30;2278.40;;;;;;5040446;28;20032;-84
2022/11/12 07:41:07;;;;;;;110.93;77.53;;;282.30;2278.40;;;;;;5039877;28;20078;-84
2022/11/12 07:43:35;;;;;;;100.63;65.05;;;282.20;2278.40;;;;;;5040197;28;20040;-83
2022/11/12 07:46:07;;;;;;;90.75;65.90;;;282.20;2278.40;;;;;;5051769;28;20040;-84
2022/11/12 07:48:33;;;;;;;91.53;67.25;;;282.30;2278.40;;;;;;5040272;28;20060;-86
2022/11/12 07:51:26;;;;;;;90.55;64.50;;;282.40;2278.40;;;;;;5039695;28;20021;-84
2022/11/12 07:53:53;;;;;;;114.88;81.07;;;282.50;2278.40;;;;;;5040311;28;20021;-85
2022/11/12 07:56:21;;;;;;;112.25;82.35;;;282.50;2278.40;;;;;;5057797;28;20091;-83
2022/11/12 07:58:49;;;;;;;75.57;54.35;;;282.50;2278.40;;;;;;5039992;28;20096;-85
2022/11/12 08:01:31;;;;;;;68.13;44.03;;;307.30;2304.00;;;;;;5040121;28;20036;-85
2022/11/12 08:03:58;;;;;;;51.80;33.35;;;307.20;2304.00;;;;;;5039799;28;20049;-86
2022/11/12 08:06:24;;;;;;;49.85;34.50;;;282.50;2278.40;;;;;;5039825;28;20037;-85
2022/11/12 08:08:57;;;;;;;57.65;38.92;;;282.50;2073.60;;;;;;5040166;28;20029;-85
2022/11/12 08:11:23;;;;;;;47.40;32.97;;;282.50;2278.40;;;;;;5040173;28;20029;-88
2022/11/12 08:13:49;;;;;;;52.40;35.55;;;282.50;2278.40;;;;;;5040009;28;20032;-85
2022/11/12 08:16:15;;;;;;;52.15;35.83;;;307.20;2304.00;;;;;;5040356;28;20028;-87
2022/11/12 08:18:42;;;;;;;48.15;32.45;;;307.30;2304.00;;;;;;5039937;28;20423;-84
2022/11/12 08:21:10;;;;;;;42.50;29.15;;;307.40;2304.00;;;;;;5039616;28;20475;-84
2022/11/12 08:23:36;;;;;;;48.40;32.13;;;307.30;2304.00;;;;;;5039971;28;20108;-85
2022/11/12 08:26:05;;;;;;;44.63;31.38;;;307.30;2304.00;;;;;;5039603;28;20452;-85
2022/11/12 08:28:33;;;;;;;47.50;30.38;;;307.40;2304.00;;;;;;5039548;28;20028;-85
2022/11/12 08:31:06;;;;;;;48.78;30.98;;;307.40;2304.00;;;;;;5039458;28;20067;-85
2022/11/12 08:33:33;;;;;;;43.83;30.48;;;307.30;2304.00;;;;;;5047310;28;20029;-84
2022/11/12 08:36:08;;;;;;;42.35;30.13;;;307.20;2304.00;;;;;;5058843;28;20028;-82
2022/11/12 08:38:35;;;;;;;40.10;29.08;;;307.30;2304.00;;;;;;5059102;28;20056;-80
2022/11/12 08:41:09;;;;;;;48.88;31.83;;;307.30;2304.00;;;;;;5058658;28;20063;-80
2022/11/12 08:43:36;;;;;;;48.40;31.95;;;307.40;2304.00;;;;;;5058896;28;20074;-86
2022/11/12 08:46:03;;;;;;;58.05;36.47;;;307.50;2304.00;;;;;;5058560;28;20036;-83
2022/11/12 08:48:30;;;;;;;48.88;35.28;;;307.50;2304.00;;;;;;5059353;28;20024;-84
2022/11/12 08:50:56;;;;;;;41.33;27.23;;;307.60;2304.00;;;;;;5081990;28;20108;-87
2022/11/12 08:53:23;;;;;;;40.78;26.25;;;307.50;2304.00;;;;;;5064383;28;20028;-88
2022/11/12 08:55:53;;;;;;;40.80;28.65;;;307.50;2304.00;;;;;;5059729;28;20032;-90
2022/11/12 08:58:19;;;;;;;38.70;27.98;;;307.50;2304.00;;;;;;5059553;28;20031;-89
2022/11/12 09:00:45;;;;;;;41.67;27.83;;;307.50;2304.00;;;;;;5059531;28;20436;-87
2022/11/12 09:03:16;;;;;;;41.90;28.33;;;307.70;2304.00;;;;;;5059813;28;20082;-89
2022/11/12 09:05:42;;;;;;;38.63;26.55;;;307.70;2304.00;;;;;;5091831;28;20072;-89
2022/11/12 09:08:16;;;;;;;38.70;25.50;;;307.90;2304.00;;;;;;5096293;28;20028;-88
2022/11/12 09:10:42;;;;;;;44.13;28.33;;;307.90;2304.00;;;;;;5096628;28;20024;-87
2022/11/12 09:13:08;;;;;;;37.40;26.33;;;308.00;2304.00;;;;;;5096154;28;20020;-90
2022/11/12 09:15:34;;;;;;;35.92;24.55;;;308.10;2304.00;;;;;;5096038;28;20097;-89
2022/11/12 09:18:03;;;;;;;38.00;23.77;;;308.10;2304.00;;;;;;5096541;28;20024;-88
2022/11/12 09:20:30;;;;;;;35.63;23.98;;;332.80;2329.60;;;;;;5096575;28;20028;-88
2022/11/12 09:23:02;;;;;;;30.45;22.40;;;332.80;2329.60;;;;;;5096332;28;20028;-89
2022/11/12 09:25:28;;;;;;;29.43;22.40;;;332.80;2329.60;;;;;;5096124;28;20481;-88
2022/11/12 09:27:54;;;;;;;31.13;22.52;;;333.00;2329.60;;;;;;5096183;28;20028;-85
2022/11/12 09:30:21;;;;;;;37.22;27.98;;;333.00;2329.60;;;;;;5095419;28;20024;-84
2022/11/12 09:32:46;;;;;;;30.90;23.13;;;333.10;2329.60;;;;;;5095437;28;20514;-83
2022/11/12 09:35:12;;;;;;;34.13;24.58;;;333.30;2329.60;;;;;;5094990;28;20082;-85
2022/11/12 09:37:38;;;;;;;31.52;20.98;;;333.50;2329.60;;;;;;5095044;28;20028;-81
2022/11/12 09:40:06;;;;;;;31.05;21.83;;;333.40;2329.60;;;;;;5094969;28;20059;-82
2022/11/12 09:42:35;;;;;;;28.52;21.50;;;333.40;2329.60;;;;;;5094843;28;20119;-83
2022/11/12 09:45:12;;;;;;;27.63;19.60;;;333.70;2329.60;;;;;;5094432;28;20028;-81
2022/11/12 09:47:43;;;;;;;32.50;22.70;;;;;;;;;;5074555;28;20124;-85
2022/11/12 09:50:29;;;;;;;28.88;20.92;;;358.80;2329.60;;;;;;5074250;28;20404;-84
2022/11/12 09:53:17;;;;;;;29.58;21.27;;;358.80;2329.60;;;;;;5074920;28;20032;-84
2022/11/12 09:55:47;;;;;;;32.80;22.15;;;358.80;2329.60;;;;;;5074297;28;20105;-82
2022/11/12 09:58:15;;;;;;;27.92;20.23;;;358.80;2329.60;;;;;;5073849;28;20021;-82
2022/11/12 10:00:54;;;;;;;28.05;20.20;;;358.60;2329.60;;;;;;5074244;28;20058;-81
2022/11/12 10:03:29;;;;;;;26.35;18.13;;;358.60;2329.60;;;;;;5074478;28;20035;-81
2022/11/12 10:05:59;;;;;;;25.23;17.70;;;358.40;2329.60;;;;;;5074416;28;20048;-80
2022/11/12 10:08:37;;;;;;;23.20;18.13;;;358.40;2329.60;;;;;;5074910;28;20052;-81
2022/11/12 10:11:09;;;;;;;22.13;15.68;;;358.50;2329.60;;;;;;5073987;28;20024;-81
2022/11/12 10:13:57;;;;;;;23.90;16.17;;;358.50;2329.60;;;;;;5074449;28;20028;-83
2022/11/12 10:16:41;;;;;;;22.40;16.42;;;358.70;2329.60;;;;;;5074712;28;20120;-81
2022/11/12 10:19:10;;;;;;;25.83;17.30;;;358.80;2329.60;;;;;;5081470;28;20028;-81
2022/11/12 10:21:57;;;;;;;23.92;18.45;;;359.30;2329.60;;;;;;5088626;28;20025;-79
2022/11/12 10:24:23;;;;;;;33.33;19.13;;;;;;;;;;5076990;28;20353;-83
2022/11/12 10:26:50;;;;;;;30.77;19.73;;;;;;;;;;5073638;28;20043;-81
2022/11/12 10:29:31;;;;;;;28.90;18.98;;;;;;;;;;5073535;28;20031;-82
2022/11/12 10:32:01;;;;;;;32.00;20.75;;;;;;;;;;5073217;28;20025;-80
2022/11/12 10:34:30;;;;;;;26.52;18.80;;;;;;;;;;5073295;28;20112;-82
2022/11/12 10:37:04;;;;;;;27.88;19.50;;;;;;;;;;5073398;28;20025;-83
2022/11/12 10:39:31;;;;;;;27.80;19.75;;;;;;;;;;5074145;28;20016;-79
2022/11/12 10:42:18;;;;;;;29.63;21.27;;;;;;;;;;5073166;28;20114;-80
2022/11/12 10:44:44;;;;;;;34.28;23.75;;;;;;;;;;5073169;28;20099;-81
2022/11/12 10:47:16;;;;;;;35.90;22.73;;;;;;;;;;5072836;28;20028;-82
2022/11/12 10:49:43;;;;;;;32.17;21.65;;;;;;;;;;5073179;28;20387;-81
2022/11/12 10:52:22;;;;;;;23.10;17.55;;;;;;;;;;5078208;28;20029;-80
2022/11/12 10:54:48;;;;;;;20.45;16.63;;;;;;;;;;5086755;28;20028;-80
2022/11/12 10:57:19;;;;;;;23.27;15.07;;;;;;;;;;5078246;28;20024;-80
2022/11/12 10:59:45;;;;;;;26.75;15.23;;;;;;;;;;5072685;28;20021;-83
2022/11/12 11:02:18;;;;;;;17.23;12.95;;;;;;;;;;5083230;28;20122;-85
2022/11/12 11:04:44;;;;;;;19.52;13.48;;;;;;;;;;5081221;28;20458;-85
2022/11/12 11:07:23;;;;;;;15.77;12.20;;;;;;;;;;5073512;28;20059;-85
2022/11/12 11:09:57;;;;;;;20.50;14.10;;;;;;;;;;5074440;28;20388;-84
2022/11/12 11:12:28;;;;;;;29.90;16.50;;;;;;;;;;5074728;28;20073;-83
2022/11/12 11:15:14;;;;;;;23.50;17.17;;;;;;;;;;5075078;28;20028;-84
2022/11/12 11:17:40;;;;;;;20.50;15.20;;;;;;;;;;5067606;28;20036;-84
2022/11/12 11:20:27;;;;;;;20.85;15.43;;;;;;;;;;5079500;28;20024;-84
2022/11/12 11:23:00;;;;;;;18.05;13.80;;;;;;;;;;5078081;28;20063;-84
2022/11/12 11:25:27;;;;;;;36.53;23.27;;;;;;;;;;5075073;28;20534;-85
2022/11/12 11:28:04;;;;;;;28.70;20.13;;;;;;;;;;5072920;28;20042;-84
2022/11/12 11:30:31;;;;;;;37.13;26.13;;;;;;;;;;5073399;28;20082;-84
2022/11/12 11:33:06;;;;;;;33.75;23.98;;;;;;;;;;5073273;28;20107;-85
2022/11/12 11:35:52;;;;;;;38.45;25.88;;;;;;;;;;5072820;28;20032;-85
2022/11/12 11:38:38;;;;;;;20.77;15.05;;;;;;;;;;5073617;28;20094;-85
2022/11/12 11:41:04;;;;;;;24.05;16.38;;;;;;;;;;5072263;28;20554;-86
2022/11/12 11:43:36;;;;;;;29.15;19.38;;;;;;;;;;5071790;28;20020;-84
2022/11/12 11:46:11;;;;;;;23.52;16.40;;;;;;;;;;5092659;28;20032;-85
2022/11/12 11:48:44;;;;;;;25.75;16.38;;;;;;;;;;5091817;28;20119;-85
2022/11/12 11:51:20;;;;;;;26.95;18.25;;;;;;;;;;5092706;28;20035;-84
2022/11/12 11:54:05;;;;;;;28.05;19.85;;;;;;;;;;5092975;28;20054;-85
2022/11/12 11:56:33;;;;;;;35.03;26.05;;;;;;;;;;5092764;28;20108;-85
2022/11/12 11:59:15;;;;;;;33.97;22.80;;;;;;;;;;5093165;28;20020;-84
2022/11/12 12:01:47;;;;;;;28.13;18.25;;;;;;;;;;5092972;28;20027;-85
2022/11/12 12:04:24;;;;;;;25.55;19.40;;;;;;;;;;5092372;28;20044;-84
2022/11/12 12:06:59;;;;;;;28.67;22.05;;;;;;;;;;5102783;28;20078;-85
2022/11/12 12:09:33;;;;;;;32.38;25.00;;;;;;;;;;5113235;28;20027;-85
2022/11/12 12:12:18;;;;;;;35.42;26.80;;;;;;;;;;5112389;28;20043;-85
2022/11/12 12:14:49;;;;;;;42.00;33.13;;;;;;;;;;5085401;28;20133;-85
2022/11/12 12:17:26;;;;;;;33.58;25.25;;;;;;;;;;5073405;28;20074;-83
2022/11/12 12:20:01;;;;;;;26.73;22.50;;;;;;;;;;5072782;28;20059;-84
2022/11/12 12:23:03;;;;;;;27.75;20.80;;;358.90;2329.60;;;;;;5076763;28;20111;-84
2022/11/12 12:25:33;;;;;;;24.20;18.38;;;358.80;2329.60;;;;;;5076242;28;20404;-84
2022/11/12 12:28:14;;;;;;;33.67;25.55;;;358.70;2329.60;;;;;;5076233;28;20052;-85
2022/11/12 12:30:46;;;;;;;37.13;26.38;;;358.80;2329.60;;;;;;5075903;28;20069;-83
2022/11/12 12:33:25;;;;;;;78.85;44.22;;;358.80;2329.60;;;;;;5077413;28;20020;-84
2022/11/12 12:36:03;;;;;;;85.20;48.28;;;358.80;2329.60;;;;;;5076268;28;20082;-84
2022/11/12 12:39:02;;;;;;;59.17;36.33;;;358.90;2329.60;;;;;;5075955;28;20028;-84
2022/11/12 12:42:03;;;;;;;42.63;27.02;;;358.90;2329.60;;;;;;5076059;28;20025;-84
2022/11/12 12:47:21;;;;;;;47.30;31.70;;;358.90;2329.60;;;;;;5076656;28;20036;-84
2022/11/12 12:49:49;;;;;;;29.30;20.63;;;358.90;2329.60;;;;;;5074680;28;20024;-85
2022/11/12 12:52:15;;;;;;;24.20;19.35;;;358.90;2329.60;;;;;;5075494;28;20020;-84